Rockport, MA (01966)

2:54 AM EDT on September 04, 2015 (GMT -0400)
KMAROCKP3 | | Change Station
CLOSE
Current Station
Personal Weather Station
Location: Rockport, MA
Elevation: 53 ft
Nearby Weather Stations

Elev 53 ft 42.66 °N, 70.61 °W | Updated 31 seconds ago

Mostly Cloudy
Mostly Cloudy
70.5 °F
Feels Like 70.5 °F
N
1.0
Wind Variable Wind from NW
Gusts 4.0 mph

Today
High -- | Low -- °F
--% Chance of Precip.
Yesterday
High -- | Low -- °F
Precip. -- in
6:10 AM 7:12 PM
Waning Gibbous, 62% visible
Pressure 29.94 in
Visibility 5.0 miles
Clouds Mostly Cloudy 4300 ft
Overcast 5500 ft
Dew Point 69 °F
Humidity 94%
Rainfall 0.00 in
Snow Depth Not available.
UV 0 out of 12
Pollen 8.60 out of 12
Air Quality Not available.
Flu Activity Not available.
METAR KBVY 040553Z AUTO 00000KT 5SM BR BKN043 OVC055 21/19 A2995 RMK AO2 SLP138 60000 T02060194 10228 20200 51013
Pressure 29.94 in
Visibility 5.0 miles
Clouds Mostly Cloudy 4300 ft
Overcast 5500 ft
Dew Point 69 °F
Humidity 94%
Rainfall 0.00 in
Snow Depth Not available.
UV 0 out of 12
Pollen 8.60 out of 12
Air Quality Not available.
Flu Activity Not available.
METAR KBVY 040553Z AUTO 00000KT 5SM BR BKN043 OVC055 21/19 A2995 RMK AO2 SLP138 60000 T02060194 10228 20200 51013

10-Day Weather Forecast

×

Almanac

Astronomy

Sep. 04, 2015 Rise Set
Actual Time
Civil Twilight
Nautical Twilight
Astronomical Twilight
Moon
Length of Visible Light
Length of Day
Tomorrow will be .
, % of the Moon is Illuminated

Today's Extremes

State Highs State Lows

Community

WunderPhotos

Upload Photos

1,852,132 photos uploaded!

WunderBlogs® & News

Nearby

Air Quality

  Air Quality AQ Index Pollutant
Not available.

Snow Depth

Station Depth Elevation

Earthquake Activity

City Distance Mag. Time & Date
Minimum magnitude displayed is 2.5.

Coastal Water Temperatures

Place Temperature

Stations

Nearby Weather Stations

Station Location Temp. Windchill Dew Point Humidity Wind Precip. Elev Updated Type